sensor_id;sensor_type;location;lat;lon;timestamp;P1;durP1;ratioP1;P2;durP2;ratioP2
51921;SDS011;37948;53.260;6.394;2022-11-20T00:00:39;18.65;;;11.18;;
51921;SDS011;37948;53.260;6.394;2022-11-20T00:03:04;16.33;;;10.65;;
51921;SDS011;37948;53.260;6.394;2022-11-20T00:05:31;18.08;;;11.27;;
51921;SDS011;37948;53.260;6.394;2022-11-20T00:07:57;16.48;;;10.70;;
51921;SDS011;37948;53.260;6.394;2022-11-20T00:10:23;14.70;;;10.65;;
51921;SDS011;37948;53.260;6.394;2022-11-20T00:12:48;16.48;;;11.50;;
51921;SDS011;37948;53.260;6.394;2022-11-20T00:15:14;14.13;;;10.55;;
51921;SDS011;37948;53.260;6.394;2022-11-20T00:17:40;17.08;;;10.93;;
51921;SDS011;37948;53.260;6.394;2022-11-20T00:20:05;15.50;;;10.73;;
51921;SDS011;37948;53.260;6.394;2022-11-20T00:22:31;18.13;;;11.10;;
51921;SDS011;37948;53.260;6.394;2022-11-20T00:24:57;17.45;;;11.02;;
51921;SDS011;37948;53.260;6.394;2022-11-20T00:27:22;16.90;;;11.40;;
51921;SDS011;37948;53.260;6.394;2022-11-20T00:29:48;17.83;;;10.98;;
51921;SDS011;37948;53.260;6.394;2022-11-20T00:32:14;19.20;;;11.85;;
51921;SDS011;37948;53.260;6.394;2022-11-20T00:34:39;15.27;;;10.00;;
51921;SDS011;37948;53.260;6.394;2022-11-20T00:37:05;17.90;;;10.57;;
51921;SDS011;37948;53.260;6.394;2022-11-20T00:39:31;16.45;;;10.70;;
51921;SDS011;37948;53.260;6.394;2022-11-20T00:41:56;17.30;;;11.00;;
51921;SDS011;37948;53.260;6.394;2022-11-20T00:44:22;16.40;;;10.50;;
51921;SDS011;37948;53.260;6.394;2022-11-20T00:46:47;14.68;;;10.15;;
51921;SDS011;37948;53.260;6.394;2022-11-20T00:49:13;15.30;;;10.48;;
51921;SDS011;37948;53.260;6.394;2022-11-20T00:51:38;16.70;;;10.18;;
51921;SDS011;37948;53.260;6.394;2022-11-20T00:54:04;17.83;;;11.25;;
51921;SDS011;37948;53.260;6.394;2022-11-20T00:56:29;13.88;;;10.48;;
51921;SDS011;37948;53.260;6.394;2022-11-20T00:58:55;17.88;;;11.60;;
51921;SDS011;37948;53.260;6.394;2022-11-20T01:01:25;16.67;;;11.23;;
51921;SDS011;37948;53.260;6.394;2022-11-20T01:03:55;17.23;;;11.00;;
51921;SDS011;37948;53.260;6.394;2022-11-20T01:08:55;15.25;;;11.57;;
51921;SDS011;37948;53.260;6.394;2022-11-20T01:11:23;16.35;;;11.35;;
51921;SDS011;37948;53.260;6.394;2022-11-20T01:13:54;16.70;;;10.77;;
51921;SDS011;37948;53.260;6.394;2022-11-20T01:16:25;14.88;;;11.13;;
51921;SDS011;37948;53.260;6.394;2022-11-20T01:18:57;14.88;;;10.43;;
51921;SDS011;37948;53.260;6.394;2022-11-20T01:21:30;16.13;;;11.15;;
51921;SDS011;37948;53.260;6.394;2022-11-20T01:24:01;15.98;;;11.02;;
51921;SDS011;37948;53.260;6.394;2022-11-20T01:26:28;17.58;;;11.07;;
51921;SDS011;37948;53.260;6.394;2022-11-20T01:28:56;19.15;;;11.02;;
51921;SDS011;37948;53.260;6.394;2022-11-20T01:31:24;15.05;;;10.38;;
51921;SDS011;37948;53.260;6.394;2022-11-20T01:33:52;13.85;;;10.45;;
51921;SDS011;37948;53.260;6.394;2022-11-20T01:36:19;14.77;;;9.88;;
51921;SDS011;37948;53.260;6.394;2022-11-20T01:38:46;15.13;;;10.48;;
51921;SDS011;37948;53.260;6.394;2022-11-20T01:41:13;14.70;;;9.68;;
51921;SDS011;37948;53.260;6.394;2022-11-20T01:43:59;15.82;;;10.32;;
51921;SDS011;37948;53.260;6.394;2022-11-20T01:46:25;15.20;;;10.65;;
51921;SDS011;37948;53.260;6.394;2022-11-20T01:48:54;17.33;;;12.07;;
51921;SDS011;37948;53.260;6.394;2022-11-20T01:54:13;16.25;;;11.10;;
51921;SDS011;37948;53.260;6.394;2022-11-20T01:56:44;13.07;;;8.63;;
51921;SDS011;37948;53.260;6.394;2022-11-20T01:59:10;14.50;;;10.60;;
51921;SDS011;37948;53.260;6.394;2022-11-20T02:01:40;17.30;;;11.10;;
51921;SDS011;37948;53.260;6.394;2022-11-20T02:04:06;13.18;;;9.70;;
51921;SDS011;37948;53.260;6.394;2022-11-20T02:06:35;15.88;;;10.73;;
51921;SDS011;37948;53.260;6.394;2022-11-20T02:09:05;13.85;;;8.57;;
51921;SDS011;37948;53.260;6.394;2022-11-20T02:11:30;19.20;;;10.75;;
51921;SDS011;37948;53.260;6.394;2022-11-20T02:13:56;15.93;;;11.20;;
51921;SDS011;37948;53.260;6.394;2022-11-20T02:16:24;13.00;;;9.43;;
51921;SDS011;37948;53.260;6.394;2022-11-20T02:18:51;15.13;;;10.57;;
51921;SDS011;37948;53.260;6.394;2022-11-20T02:22:02;15.93;;;10.57;;
51921;SDS011;37948;53.260;6.394;2022-11-20T02:26:59;14.73;;;9.77;;
51921;SDS011;37948;53.260;6.394;2022-11-20T02:29:39;15.15;;;9.77;;
51921;SDS011;37948;53.260;6.394;2022-11-20T02:34:50;16.30;;;10.48;;
51921;SDS011;37948;53.260;6.394;2022-11-20T02:37:16;13.73;;;10.27;;
51921;SDS011;37948;53.260;6.394;2022-11-20T02:39:43;14.60;;;9.93;;
51921;SDS011;37948;53.260;6.394;2022-11-20T02:42:11;16.27;;;10.23;;
51921;SDS011;37948;53.260;6.394;2022-11-20T02:44:36;15.70;;;10.63;;
51921;SDS011;37948;53.260;6.394;2022-11-20T02:47:02;15.15;;;10.00;;
51921;SDS011;37948;53.260;6.394;2022-11-20T02:49:28;17.60;;;10.70;;
51921;SDS011;37948;53.260;6.394;2022-11-20T02:51:53;15.32;;;9.88;;
51921;SDS011;37948;53.260;6.394;2022-11-20T02:54:19;16.15;;;10.43;;
51921;SDS011;37948;53.260;6.394;2022-11-20T02:56:44;16.85;;;10.48;;
51921;SDS011;37948;53.260;6.394;2022-11-20T02:59:10;16.27;;;10.50;;
51921;SDS011;37948;53.260;6.394;2022-11-20T03:01:36;16.15;;;10.68;;
51921;SDS011;37948;53.260;6.394;2022-11-20T03:04:01;16.45;;;10.05;;
51921;SDS011;37948;53.260;6.394;2022-11-20T03:06:27;15.50;;;10.52;;
51921;SDS011;37948;53.260;6.394;2022-11-20T03:08:53;14.73;;;10.25;;
51921;SDS011;37948;53.260;6.394;2022-11-20T03:11:19;14.18;;;9.88;;
51921;SDS011;37948;53.260;6.394;2022-11-20T03:13:45;13.18;;;9.57;;
51921;SDS011;37948;53.260;6.394;2022-11-20T03:16:12;15.85;;;10.85;;
51921;SDS011;37948;53.260;6.394;2022-11-20T03:18:40;14.60;;;9.60;;
51921;SDS011;37948;53.260;6.394;2022-11-20T03:21:06;13.27;;;9.48;;
51921;SDS011;37948;53.260;6.394;2022-11-20T03:23:33;14.07;;;10.02;;
51921;SDS011;37948;53.260;6.394;2022-11-20T03:28:41;12.60;;;9.00;;
51921;SDS011;37948;53.260;6.394;2022-11-20T03:31:12;12.30;;;9.10;;
51921;SDS011;37948;53.260;6.394;2022-11-20T03:33:40;13.50;;;9.15;;
51921;SDS011;37948;53.260;6.394;2022-11-20T03:36:08;13.98;;;9.82;;
51921;SDS011;37948;53.260;6.394;2022-11-20T03:38:36;14.00;;;9.65;;
51921;SDS011;37948;53.260;6.394;2022-11-20T03:41:03;13.52;;;9.60;;
51921;SDS011;37948;53.260;6.394;2022-11-20T03:43:30;15.88;;;10.57;;
51921;SDS011;37948;53.260;6.394;2022-11-20T03:45:57;13.00;;;9.45;;
51921;SDS011;37948;53.260;6.394;2022-11-20T03:48:23;15.43;;;9.93;;
51921;SDS011;37948;53.260;6.394;2022-11-20T03:50:48;13.68;;;9.10;;
51921;SDS011;37948;53.260;6.394;2022-11-20T03:53:15;14.13;;;9.50;;
51921;SDS011;37948;53.260;6.394;2022-11-20T03:55:40;13.13;;;9.10;;
51921;SDS011;37948;53.260;6.394;2022-11-20T03:58:06;12.25;;;8.45;;
51921;SDS011;37948;53.260;6.394;2022-11-20T04:00:32;15.18;;;9.32;;
51921;SDS011;37948;53.260;6.394;2022-11-20T04:02:58;11.02;;;8.50;;
51921;SDS011;37948;53.260;6.394;2022-11-20T04:05:24;11.25;;;8.48;;
51921;SDS011;37948;53.260;6.394;2022-11-20T04:07:50;13.10;;;9.10;;
51921;SDS011;37948;53.260;6.394;2022-11-20T04:10:15;11.75;;;8.23;;
51921;SDS011;37948;53.260;6.394;2022-11-20T04:12:41;11.27;;;7.97;;
51921;SDS011;37948;53.260;6.394;2022-11-20T04:15:07;10.98;;;8.30;;
51921;SDS011;37948;53.260;6.394;2022-11-20T04:17:32;13.82;;;7.30;;
51921;SDS011;37948;53.260;6.394;2022-11-20T04:19:58;10.40;;;7.90;;
51921;SDS011;37948;53.260;6.394;2022-11-20T04:22:24;12.70;;;8.07;;
51921;SDS011;37948;53.260;6.394;2022-11-20T04:24:49;12.32;;;8.35;;
51921;SDS011;37948;53.260;6.394;2022-11-20T04:27:15;13.40;;;9.40;;
51921;SDS011;37948;53.260;6.394;2022-11-20T04:29:40;11.05;;;8.40;;
51921;SDS011;37948;53.260;6.394;2022-11-20T04:32:06;12.05;;;8.80;;
51921;SDS011;37948;53.260;6.394;2022-11-20T04:34:31;12.43;;;8.43;;
51921;SDS011;37948;53.260;6.394;2022-11-20T04:36:57;13.40;;;8.75;;
51921;SDS011;37948;53.260;6.394;2022-11-20T04:39:22;12.40;;;8.20;;
51921;SDS011;37948;53.260;6.394;2022-11-20T04:41:48;13.30;;;9.15;;
51921;SDS011;37948;53.260;6.394;2022-11-20T04:44:33;12.80;;;8.27;;
51921;SDS011;37948;53.260;6.394;2022-11-20T04:46:59;12.82;;;8.90;;
51921;SDS011;37948;53.260;6.394;2022-11-20T04:49:25;11.07;;;7.97;;
51921;SDS011;37948;53.260;6.394;2022-11-20T04:51:52;11.38;;;9.00;;
51921;SDS011;37948;53.260;6.394;2022-11-20T04:54:18;11.88;;;8.15;;
51921;SDS011;37948;53.260;6.394;2022-11-20T04:56:47;11.52;;;8.05;;
51921;SDS011;37948;53.260;6.394;2022-11-20T04:59:13;10.55;;;8.35;;
51921;SDS011;37948;53.260;6.394;2022-11-20T05:01:38;15.32;;;8.07;;
51921;SDS011;37948;53.260;6.394;2022-11-20T05:04:04;12.48;;;8.77;;
51921;SDS011;37948;53.260;6.394;2022-11-20T05:06:30;11.05;;;8.00;;
51921;SDS011;37948;53.260;6.394;2022-11-20T05:08:56;12.70;;;8.38;;
51921;SDS011;37948;53.260;6.394;2022-11-20T05:11:22;14.48;;;9.02;;
51921;SDS011;37948;53.260;6.394;2022-11-20T05:13:48;14.73;;;8.50;;
51921;SDS011;37948;53.260;6.394;2022-11-20T05:16:15;13.30;;;8.88;;
51921;SDS011;37948;53.260;6.394;2022-11-20T05:18:43;12.68;;;8.00;;
51921;SDS011;37948;53.260;6.394;2022-11-20T05:21:09;15.43;;;9.07;;
51921;SDS011;37948;53.260;6.394;2022-11-20T05:23:35;11.60;;;8.30;;
51921;SDS011;37948;53.260;6.394;2022-11-20T05:26:01;10.75;;;7.53;;
51921;SDS011;37948;53.260;6.394;2022-11-20T05:28:27;10.50;;;7.93;;
51921;SDS011;37948;53.260;6.394;2022-11-20T05:30:54;12.68;;;8.93;;
51921;SDS011;37948;53.260;6.394;2022-11-20T05:33:20;14.77;;;9.10;;
51921;SDS011;37948;53.260;6.394;2022-11-20T05:35:46;11.02;;;8.02;;
51921;SDS011;37948;53.260;6.394;2022-11-20T05:38:11;13.60;;;8.77;;
51921;SDS011;37948;53.260;6.394;2022-11-20T05:40:37;13.18;;;8.88;;
51921;SDS011;37948;53.260;6.394;2022-11-20T05:43:02;11.75;;;8.35;;
51921;SDS011;37948;53.260;6.394;2022-11-20T05:45:28;13.02;;;8.70;;
51921;SDS011;37948;53.260;6.394;2022-11-20T05:47:57;12.77;;;9.00;;
51921;SDS011;37948;53.260;6.394;2022-11-20T05:50:26;13.75;;;8.73;;
51921;SDS011;37948;53.260;6.394;2022-11-20T05:52:52;14.82;;;9.80;;
51921;SDS011;37948;53.260;6.394;2022-11-20T05:55:18;10.80;;;8.48;;
51921;SDS011;37948;53.260;6.394;2022-11-20T05:57:43;9.70;;;7.85;;
51921;SDS011;37948;53.260;6.394;2022-11-20T06:00:09;11.35;;;8.50;;
51921;SDS011;37948;53.260;6.394;2022-11-20T06:02:35;11.68;;;8.15;;
51921;SDS011;37948;53.260;6.394;2022-11-20T06:05:01;14.68;;;8.95;;
51921;SDS011;37948;53.260;6.394;2022-11-20T06:07:26;12.15;;;8.07;;
51921;SDS011;37948;53.260;6.394;2022-11-20T06:09:52;13.52;;;8.32;;
51921;SDS011;37948;53.260;6.394;2022-11-20T06:12:17;13.35;;;8.32;;
51921;SDS011;37948;53.260;6.394;2022-11-20T06:14:43;10.82;;;8.02;;
51921;SDS011;37948;53.260;6.394;2022-11-20T06:17:09;10.77;;;8.15;;
51921;SDS011;37948;53.260;6.394;2022-11-20T06:19:34;11.00;;;8.32;;
51921;SDS011;37948;53.260;6.394;2022-11-20T06:22:00;10.70;;;8.07;;
51921;SDS011;37948;53.260;6.394;2022-11-20T06:24:25;10.80;;;7.70;;
51921;SDS011;37948;53.260;6.394;2022-11-20T06:26:51;10.38;;;7.90;;
51921;SDS011;37948;53.260;6.394;2022-11-20T06:29:16;11.60;;;9.05;;
51921;SDS011;37948;53.260;6.394;2022-11-20T06:31:42;12.13;;;8.15;;
51921;SDS011;37948;53.260;6.394;2022-11-20T06:34:07;10.80;;;7.50;;
51921;SDS011;37948;53.260;6.394;2022-11-20T06:36:33;10.70;;;7.85;;
51921;SDS011;37948;53.260;6.394;2022-11-20T06:38:59;11.30;;;8.05;;
51921;SDS011;37948;53.260;6.394;2022-11-20T06:41:25;10.25;;;7.32;;
51921;SDS011;37948;53.260;6.394;2022-11-20T06:43:51;10.40;;;7.93;;
51921;SDS011;37948;53.260;6.394;2022-11-20T06:46:17;10.38;;;8.02;;
51921;SDS011;37948;53.260;6.394;2022-11-20T06:48:43;12.25;;;8.30;;
51921;SDS011;37948;53.260;6.394;2022-11-20T06:51:09;11.60;;;8.27;;
51921;SDS011;37948;53.260;6.394;2022-11-20T06:53:35;10.80;;;8.30;;
51921;SDS011;37948;53.260;6.394;2022-11-20T06:56:02;11.35;;;8.40;;
51921;SDS011;37948;53.260;6.394;2022-11-20T06:58:29;11.55;;;8.55;;
51921;SDS011;37948;53.260;6.394;2022-11-20T07:01:03;11.50;;;7.78;;
51921;SDS011;37948;53.260;6.394;2022-11-20T07:03:36;12.90;;;8.45;;
51921;SDS011;37948;53.260;6.394;2022-11-20T07:06:02;11.27;;;8.35;;
51921;SDS011;37948;53.260;6.394;2022-11-20T07:08:29;11.55;;;7.93;;
51921;SDS011;37948;53.260;6.394;2022-11-20T07:10:58;9.68;;;8.00;;
51921;SDS011;37948;53.260;6.394;2022-11-20T07:13:25;13.98;;;8.52;;
51921;SDS011;37948;53.260;6.394;2022-11-20T07:15:51;11.57;;;8.23;;
51921;SDS011;37948;53.260;6.394;2022-11-20T07:18:17;10.30;;;7.97;;
51921;SDS011;37948;53.260;6.394;2022-11-20T07:20:43;10.23;;;7.78;;
51921;SDS011;37948;53.260;6.394;2022-11-20T07:23:08;11.55;;;8.13;;
51921;SDS011;37948;53.260;6.394;2022-11-20T07:25:34;10.82;;;7.78;;
51921;SDS011;37948;53.260;6.394;2022-11-20T07:27:59;12.35;;;8.35;;
51921;SDS011;37948;53.260;6.394;2022-11-20T07:30:28;11.88;;;8.32;;
51921;SDS011;37948;53.260;6.394;2022-11-20T07:32:55;15.68;;;8.77;;
51921;SDS011;37948;53.260;6.394;2022-11-20T07:35:21;12.05;;;8.40;;
51921;SDS011;37948;53.260;6.394;2022-11-20T07:37:48;11.55;;;8.18;;
51921;SDS011;37948;53.260;6.394;2022-11-20T07:40:14;12.60;;;9.07;;
51921;SDS011;37948;53.260;6.394;2022-11-20T07:42:47;10.48;;;8.43;;
51921;SDS011;37948;53.260;6.394;2022-11-20T07:45:14;13.57;;;9.00;;
51921;SDS011;37948;53.260;6.394;2022-11-20T07:47:39;11.23;;;8.48;;
51921;SDS011;37948;53.260;6.394;2022-11-20T07:50:05;11.38;;;8.35;;
51921;SDS011;37948;53.260;6.394;2022-11-20T07:52:30;12.02;;;8.48;;
51921;SDS011;37948;53.260;6.394;2022-11-20T07:54:56;11.30;;;7.95;;
51921;SDS011;37948;53.260;6.394;2022-11-20T07:57:22;10.15;;;7.65;;
51921;SDS011;37948;53.260;6.394;2022-11-20T07:59:47;12.13;;;8.45;;
51921;SDS011;37948;53.260;6.394;2022-11-20T08:02:13;10.77;;;7.72;;
51921;SDS011;37948;53.260;6.394;2022-11-20T08:04:38;15.15;;;7.60;;
51921;SDS011;37948;53.260;6.394;2022-11-20T08:07:04;10.05;;;7.82;;
51921;SDS011;37948;53.260;6.394;2022-11-20T08:09:29;10.57;;;8.00;;
51921;SDS011;37948;53.260;6.394;2022-11-20T08:11:55;13.15;;;7.53;;
51921;SDS011;37948;53.260;6.394;2022-11-20T08:14:39;12.00;;;8.45;;
51921;SDS011;37948;53.260;6.394;2022-11-20T08:17:04;11.13;;;8.45;;
51921;SDS011;37948;53.260;6.394;2022-11-20T08:19:30;11.68;;;8.77;;
51921;SDS011;37948;53.260;6.394;2022-11-20T08:21:55;10.90;;;8.40;;
51921;SDS011;37948;53.260;6.394;2022-11-20T08:24:21;12.15;;;8.48;;
51921;SDS011;37948;53.260;6.394;2022-11-20T08:26:47;10.77;;;7.72;;
51921;SDS011;37948;53.260;6.394;2022-11-20T08:29:12;12.75;;;8.65;;
51921;SDS011;37948;53.260;6.394;2022-11-20T08:31:38;11.93;;;8.40;;
51921;SDS011;37948;53.260;6.394;2022-11-20T08:34:03;10.27;;;8.00;;
51921;SDS011;37948;53.260;6.394;2022-11-20T08:36:32;11.43;;;8.00;;
51921;SDS011;37948;53.260;6.394;2022-11-20T08:38:59;10.57;;;8.10;;
51921;SDS011;37948;53.260;6.394;2022-11-20T08:41:24;10.65;;;8.30;;
51921;SDS011;37948;53.260;6.394;2022-11-20T08:46:22;11.65;;;8.60;;
51921;SDS011;37948;53.260;6.394;2022-11-20T08:48:49;11.20;;;7.95;;
51921;SDS011;37948;53.260;6.394;2022-11-20T08:51:15;12.20;;;8.60;;
51921;SDS011;37948;53.260;6.394;2022-11-20T08:53:41;11.68;;;8.40;;
51921;SDS011;37948;53.260;6.394;2022-11-20T08:56:07;10.95;;;7.82;;
51921;SDS011;37948;53.260;6.394;2022-11-20T08:58:34;10.57;;;8.00;;
51921;SDS011;37948;53.260;6.394;2022-11-20T09:01:00;11.55;;;7.72;;
51921;SDS011;37948;53.260;6.394;2022-11-20T09:03:26;12.25;;;8.27;;
51921;SDS011;37948;53.260;6.394;2022-11-20T09:05:56;12.35;;;8.18;;
51921;SDS011;37948;53.260;6.394;2022-11-20T09:08:25;10.00;;;7.80;;
51921;SDS011;37948;53.260;6.394;2022-11-20T09:10:55;11.30;;;8.55;;
51921;SDS011;37948;53.260;6.394;2022-11-20T09:13:21;12.18;;;8.00;;
51921;SDS011;37948;53.260;6.394;2022-11-20T09:16:07;9.30;;;7.90;;
51921;SDS011;37948;53.260;6.394;2022-11-20T09:18:34;10.50;;;7.65;;
51921;SDS011;37948;53.260;6.394;2022-11-20T09:21:04;13.18;;;9.07;;
51921;SDS011;37948;53.260;6.394;2022-11-20T09:23:33;9.65;;;7.70;;
51921;SDS011;37948;53.260;6.394;2022-11-20T09:26:06;10.65;;;8.35;;
51921;SDS011;37948;53.260;6.394;2022-11-20T09:28:34;12.52;;;8.48;;
51921;SDS011;37948;53.260;6.394;2022-11-20T09:30:59;10.18;;;8.07;;
51921;SDS011;37948;53.260;6.394;2022-11-20T09:33:25;8.45;;;6.88;;
51921;SDS011;37948;53.260;6.394;2022-11-20T09:35:51;11.73;;;7.68;;
51921;SDS011;37948;53.260;6.394;2022-11-20T09:38:17;11.43;;;8.00;;
51921;SDS011;37948;53.260;6.394;2022-11-20T09:40:44;13.60;;;7.22;;
51921;SDS011;37948;53.260;6.394;2022-11-20T09:46:21;15.27;;;8.82;;
51921;SDS011;37948;53.260;6.394;2022-11-20T09:54:29;11.32;;;8.25;;
51921;SDS011;37948;53.260;6.394;2022-11-20T09:57:02;10.15;;;7.70;;
51921;SDS011;37948;53.260;6.394;2022-11-20T09:59:38;10.68;;;7.75;;
51921;SDS011;37948;53.260;6.394;2022-11-20T10:02:17;10.90;;;7.32;;
51921;SDS011;37948;53.260;6.394;2022-11-20T10:05:31;10.40;;;7.82;;
51921;SDS011;37948;53.260;6.394;2022-11-20T10:10:31;10.73;;;7.88;;
51921;SDS011;37948;53.260;6.394;2022-11-20T10:21:54;12.30;;;7.63;;
51921;SDS011;37948;53.260;6.394;2022-11-20T10:24:44;12.60;;;8.55;;
51921;SDS011;37948;53.260;6.394;2022-11-20T10:30:15;10.85;;;7.82;;
51921;SDS011;37948;53.260;6.394;2022-11-20T10:32:43;10.70;;;8.45;;
51921;SDS011;37948;53.260;6.394;2022-11-20T10:37:48;11.43;;;8.45;;
51921;SDS011;37948;53.260;6.394;2022-11-20T10:40:20;10.13;;;7.95;;
51921;SDS011;37948;53.260;6.394;2022-11-20T10:42:54;11.18;;;8.10;;
51921;SDS011;37948;53.260;6.394;2022-11-20T10:47:54;10.95;;;8.75;;
51921;SDS011;37948;53.260;6.394;2022-11-20T10:50:23;11.38;;;8.43;;
51921;SDS011;37948;53.260;6.394;2022-11-20T10:53:02;11.18;;;8.20;;
51921;SDS011;37948;53.260;6.394;2022-11-20T10:56:04;10.30;;;8.20;;
51921;SDS011;37948;53.260;6.394;2022-11-20T10:58:35;10.82;;;8.18;;
51921;SDS011;37948;53.260;6.394;2022-11-20T11:01:20;10.70;;;7.65;;
51921;SDS011;37948;53.260;6.394;2022-11-20T11:03:48;11.13;;;8.25;;
51921;SDS011;37948;53.260;6.394;2022-11-20T11:11:57;9.50;;;7.38;;
51921;SDS011;37948;53.260;6.394;2022-11-20T11:14:23;11.70;;;7.38;;
51921;SDS011;37948;53.260;6.394;2022-11-20T11:16:56;10.38;;;7.78;;
51921;SDS011;37948;53.260;6.394;2022-11-20T11:19:23;10.30;;;7.60;;
51921;SDS011;37948;53.260;6.394;2022-11-20T11:21:56;11.63;;;8.00;;
51921;SDS011;37948;53.260;6.394;2022-11-20T11:29:31;10.45;;;7.68;;
51921;SDS011;37948;53.260;6.394;2022-11-20T11:34:33;10.48;;;7.60;;
51921;SDS011;37948;53.260;6.394;2022-11-20T11:37:00;11.75;;;7.97;;
51921;SDS011;37948;53.260;6.394;2022-11-20T11:39:28;10.35;;;7.25;;
51921;SDS011;37948;53.260;6.394;2022-11-20T11:41:56;10.25;;;7.35;;
51921;SDS011;37948;53.260;6.394;2022-11-20T11:44:30;10.35;;;7.45;;
51921;SDS011;37948;53.260;6.394;2022-11-20T11:47:33;9.82;;;7.22;;
51921;SDS011;37948;53.260;6.394;2022-11-20T11:52:42;9.43;;;7.25;;
51921;SDS011;37948;53.260;6.394;2022-11-20T12:03:53;15.82;;;7.00;;
51921;SDS011;37948;53.260;6.394;2022-11-20T12:06:43;10.82;;;6.60;;
51921;SDS011;37948;53.260;6.394;2022-11-20T12:09:11;9.27;;;6.65;;
51921;SDS011;37948;53.260;6.394;2022-11-20T12:11:38;8.68;;;6.07;;
51921;SDS011;37948;53.260;6.394;2022-11-20T12:16:59;7.07;;;5.03;;
51921;SDS011;37948;53.260;6.394;2022-11-20T12:19:26;7.28;;;5.53;;
51921;SDS011;37948;53.260;6.394;2022-11-20T12:32:30;6.00;;;5.13;;
51921;SDS011;37948;53.260;6.394;2022-11-20T12:41:05;5.90;;;4.05;;
51921;SDS011;37948;53.260;6.394;2022-11-20T12:50:23;10.90;;;5.93;;
51921;SDS011;37948;53.260;6.394;2022-11-20T12:53:25;8.18;;;5.10;;
51921;SDS011;37948;53.260;6.394;2022-11-20T12:56:01;6.47;;;5.00;;
51921;SDS011;37948;53.260;6.394;2022-11-20T12:58:57;5.15;;;4.65;;
51921;SDS011;37948;53.260;6.394;2022-11-20T13:02:05;6.18;;;5.55;;
51921;SDS011;37948;53.260;6.394;2022-11-20T13:10:45;4.72;;;4.15;;
51921;SDS011;37948;53.260;6.394;2022-11-20T13:18:33;5.32;;;4.60;;
51921;SDS011;37948;53.260;6.394;2022-11-20T13:21:14;5.00;;;4.32;;
51921;SDS011;37948;53.260;6.394;2022-11-20T13:23:41;4.38;;;3.97;;
51921;SDS011;37948;53.260;6.394;2022-11-20T13:26:20;5.68;;;4.57;;
51921;SDS011;37948;53.260;6.394;2022-11-20T13:28:48;7.57;;;4.60;;
51921;SDS011;37948;53.260;6.394;2022-11-20T13:31:36;5.55;;;4.35;;
51921;SDS011;37948;53.260;6.394;2022-11-20T13:34:10;7.28;;;3.45;;
51921;SDS011;37948;53.260;6.394;2022-11-20T13:37:03;6.20;;;4.03;;
51921;SDS011;37948;53.260;6.394;2022-11-20T13:42:03;15.77;;;5.03;;
51921;SDS011;37948;53.260;6.394;2022-11-20T13:45:00;5.55;;;4.38;;
51921;SDS011;37948;53.260;6.394;2022-11-20T13:47:33;14.65;;;5.60;;
51921;SDS011;37948;53.260;6.394;2022-11-20T13:50:02;6.65;;;4.18;;
51921;SDS011;37948;53.260;6.394;2022-11-20T13:55:16;5.22;;;4.07;;
51921;SDS011;37948;53.260;6.394;2022-11-20T13:58:57;9.15;;;5.38;;
51921;SDS011;37948;53.260;6.394;2022-11-20T14:01:11;7.88;;;5.32;;
51921;SDS011;37948;53.260;6.394;2022-11-20T14:03:46;7.43;;;5.35;;
51921;SDS011;37948;53.260;6.394;2022-11-20T14:06:28;8.57;;;5.88;;
51921;SDS011;37948;53.260;6.394;2022-11-20T14:08:56;14.30;;;6.38;;
51921;SDS011;37948;53.260;6.394;2022-11-20T14:11:23;13.10;;;5.57;;
51921;SDS011;37948;53.260;6.394;2022-11-20T14:16:23;7.45;;;4.95;;
51921;SDS011;37948;53.260;6.394;2022-11-20T14:18:50;9.38;;;4.72;;
51921;SDS011;37948;53.260;6.394;2022-11-20T14:21:23;7.85;;;4.78;;
51921;SDS011;37948;53.260;6.394;2022-11-20T14:24:09;4.85;;;4.38;;
51921;SDS011;37948;53.260;6.394;2022-11-20T14:26:37;5.20;;;4.50;;
51921;SDS011;37948;53.260;6.394;2022-11-20T14:29:17;6.90;;;5.50;;
51921;SDS011;37948;53.260;6.394;2022-11-20T14:31:50;6.63;;;4.68;;
51921;SDS011;37948;53.260;6.394;2022-11-20T14:34:30;7.80;;;5.00;;
51921;SDS011;37948;53.260;6.394;2022-11-20T14:36:59;6.03;;;4.93;;
51921;SDS011;37948;53.260;6.394;2022-11-20T14:39:31;5.70;;;5.07;;
51921;SDS011;37948;53.260;6.394;2022-11-20T14:41:59;6.47;;;5.22;;
51921;SDS011;37948;53.260;6.394;2022-11-20T14:44:34;7.50;;;5.40;;
51921;SDS011;37948;53.260;6.394;2022-11-20T14:47:01;9.75;;;5.78;;
51921;SDS011;37948;53.260;6.394;2022-11-20T14:49:29;6.35;;;5.30;;
51921;SDS011;37948;53.260;6.394;2022-11-20T14:52:02;10.88;;;5.63;;
51921;SDS011;37948;53.260;6.394;2022-11-20T14:55:13;7.78;;;5.43;;
51921;SDS011;37948;53.260;6.394;2022-11-20T15:02:46;14.80;;;5.75;;
51921;SDS011;37948;53.260;6.394;2022-11-20T15:05:14;6.13;;;5.20;;
51921;SDS011;37948;53.260;6.394;2022-11-20T15:07:42;7.95;;;5.30;;
51921;SDS011;37948;53.260;6.394;2022-11-20T15:10:18;12.43;;;5.67;;
51921;SDS011;37948;53.260;6.394;2022-11-20T15:12:54;8.30;;;5.50;;
51921;SDS011;37948;53.260;6.394;2022-11-20T15:15:27;6.07;;;5.35;;
51921;SDS011;37948;53.260;6.394;2022-11-20T15:20:24;7.95;;;5.63;;
51921;SDS011;37948;53.260;6.394;2022-11-20T15:22:56;6.78;;;5.80;;
51921;SDS011;37948;53.260;6.394;2022-11-20T15:25:22;8.68;;;6.07;;
51921;SDS011;37948;53.260;6.394;2022-11-20T15:27:50;8.45;;;7.07;;
51921;SDS011;37948;53.260;6.394;2022-11-20T15:30:19;8.75;;;6.30;;
51921;SDS011;37948;53.260;6.394;2022-11-20T15:32:46;7.97;;;6.32;;
51921;SDS011;37948;53.260;6.394;2022-11-20T15:35:12;8.52;;;5.70;;
51921;SDS011;37948;53.260;6.394;2022-11-20T15:37:38;7.10;;;5.55;;
51921;SDS011;37948;53.260;6.394;2022-11-20T15:40:05;7.30;;;5.93;;
51921;SDS011;37948;53.260;6.394;2022-11-20T15:42:32;7.78;;;5.70;;
51921;SDS011;37948;53.260;6.394;2022-11-20T15:44:58;8.05;;;6.18;;
51921;SDS011;37948;53.260;6.394;2022-11-20T15:47:27;8.18;;;6.13;;
51921;SDS011;37948;53.260;6.394;2022-11-20T15:49:55;9.48;;;5.82;;
51921;SDS011;37948;53.260;6.394;2022-11-20T15:52:21;7.43;;;5.90;;
51921;SDS011;37948;53.260;6.394;2022-11-20T15:54:47;9.10;;;6.38;;
51921;SDS011;37948;53.260;6.394;2022-11-20T15:57:12;7.28;;;5.53;;
51921;SDS011;37948;53.260;6.394;2022-11-20T15:59:38;6.55;;;5.53;;
51921;SDS011;37948;53.260;6.394;2022-11-20T16:02:12;6.90;;;6.13;;
51921;SDS011;37948;53.260;6.394;2022-11-20T16:04:39;11.82;;;5.82;;
51921;SDS011;37948;53.260;6.394;2022-11-20T16:07:05;10.85;;;7.10;;
51921;SDS011;37948;53.260;6.394;2022-11-20T16:09:31;9.73;;;6.38;;
51921;SDS011;37948;53.260;6.394;2022-11-20T16:11:57;8.23;;;6.57;;
51921;SDS011;37948;53.260;6.394;2022-11-20T16:14:24;8.20;;;6.10;;
51921;SDS011;37948;53.260;6.394;2022-11-20T16:17:11;11.00;;;6.00;;
51921;SDS011;37948;53.260;6.394;2022-11-20T16:19:37;12.68;;;6.85;;
51921;SDS011;37948;53.260;6.394;2022-11-20T16:22:03;8.40;;;6.47;;
51921;SDS011;37948;53.260;6.394;2022-11-20T16:24:28;8.10;;;6.25;;
51921;SDS011;37948;53.260;6.394;2022-11-20T16:26:54;8.13;;;6.55;;
51921;SDS011;37948;53.260;6.394;2022-11-20T16:29:20;8.82;;;6.90;;
51921;SDS011;37948;53.260;6.394;2022-11-20T16:31:46;8.60;;;6.68;;
51921;SDS011;37948;53.260;6.394;2022-11-20T16:34:11;9.70;;;7.15;;
51921;SDS011;37948;53.260;6.394;2022-11-20T16:36:40;7.32;;;6.20;;
51921;SDS011;37948;53.260;6.394;2022-11-20T16:39:08;9.82;;;6.97;;
51921;SDS011;37948;53.260;6.394;2022-11-20T16:41:34;8.95;;;6.70;;
51921;SDS011;37948;53.260;6.394;2022-11-20T16:44:01;8.60;;;6.68;;
51921;SDS011;37948;53.260;6.394;2022-11-20T16:46:31;10.90;;;7.05;;
51921;SDS011;37948;53.260;6.394;2022-11-20T16:49:03;9.57;;;7.35;;